Terminal Aerodrome Forecast
Issued by NWS Cleveland, OH

Home | Current Version | Previous Version | Text Only | Print | Product List | Glossary On
Versions: 1 2 3 4 5 6 7 8 9 10 11 12 13 14 15 16 17 18 19 20 21 22 23 24 25 26 27 28 29 30
784
FTUS41 KCLE 110921 AAC
TAFCLE
TAF AMD
KCLE 110921Z 1109/1212 28008KT 6SM -SN OVC025
     FM111600 22005KT P6SM SCT025 OVC035
     FM120000 19008KT 5SM -SN OVC025
     FM120700 27012G18KT 2SM -SN SCT008 OVC012=

USA.gov is the U.S. government's official web portal to all federal, state and local government web resources and services.